Time;durP1;ratioP1;P1;durP2;ratioP2;P2;SDS_P1;SDS_P2;PMS_P1;PMS_P2;Temp;Humidity;BMP_temperature;BMP_pressure;BME280_temperature;BME280_humidity;BME280_pressure;Samples;Min_cycle;Max_cycle;Signal;HPM_P1;HPM_P2
2021/12/18 00:01:21;;;;;;;7.57;3.78;;;9.00;86.60;;;;;;4937714;28;93073;-69
2021/12/18 00:03:48;;;;;;;5.38;3.35;;;8.90;86.60;;;;;;4937415;28;92676;-69
2021/12/18 00:06:15;;;;;;;6.40;3.72;;;8.90;86.80;;;;;;4937837;28;92487;-70
2021/12/18 00:08:43;;;;;;;12.70;4.18;;;8.90;87.30;;;;;;4937992;28;91611;-69
2021/12/18 00:11:11;;;;;;;12.15;4.47;;;8.90;87.60;;;;;;4937315;28;92360;-70
2021/12/18 00:13:38;;;;;;;12.25;4.82;;;9.00;87.10;;;;;;4937407;28;92712;-69
2021/12/18 00:16:06;;;;;;;9.75;4.68;;;9.00;87.40;;;;;;4936303;28;94828;-70
2021/12/18 00:18:35;;;;;;;6.15;3.80;;;9.00;87.20;;;;;;4935898;28;92468;-69
2021/12/18 00:21:04;;;;;;;19.80;4.90;;;9.00;86.70;;;;;;4937083;28;94761;-70
2021/12/18 00:23:31;;;;;;;13.38;4.93;;;8.90;86.60;;;;;;4920005;28;93969;-69
2021/12/18 00:25:58;;;;;;;15.18;4.50;;;8.80;87.60;;;;;;4935913;28;92439;-69
2021/12/18 00:28:25;;;;;;;14.82;5.10;;;8.80;87.20;;;;;;4937356;28;92500;-70
2021/12/18 00:30:52;;;;;;;23.98;5.78;;;8.80;87.60;;;;;;4935886;28;92520;-70
2021/12/18 00:33:19;;;;;;;23.88;5.93;;;8.70;87.80;;;;;;4936345;28;92683;-69
2021/12/18 00:35:46;;;;;;;19.17;5.43;;;8.70;88.10;;;;;;4937149;28;92455;-69
2021/12/18 00:38:13;;;;;;;35.00;5.35;;;8.60;88.20;;;;;;4935754;28;92386;-69
2021/12/18 00:41:10;;;;;;;20.88;5.63;;;8.60;88.70;;;;;;4935546;28;95514;-69
2021/12/18 00:44:00;;;;;;;20.77;5.25;;;8.60;88.70;;;;;;4936744;28;94086;-69
2021/12/18 00:46:25;;;;;;;27.23;5.95;;;8.60;89.00;;;;;;4936692;28;92490;-69
2021/12/18 00:48:52;;;;;;;33.13;5.90;;;8.60;88.90;;;;;;4937147;28;92458;-70
2021/12/18 00:51:19;;;;;;;17.48;5.70;;;8.60;89.00;;;;;;4935187;28;94673;-70
2021/12/18 00:53:46;;;;;;;18.50;4.88;;;8.60;89.20;;;;;;4936732;28;92722;-70
2021/12/18 00:56:13;;;;;;;28.50;5.47;;;8.60;89.30;;;;;;4936788;28;92956;-70
2021/12/18 00:58:41;;;;;;;21.10;4.90;;;8.60;89.60;;;;;;4937366;28;91732;-70
2021/12/18 01:01:10;;;;;;;30.45;6.32;;;8.60;89.60;;;;;;4936345;28;93109;-69
2021/12/18 01:03:40;;;;;;;23.98;5.57;;;8.60;89.60;;;;;;4935387;28;95609;-69
2021/12/18 01:06:07;;;;;;;22.67;5.97;;;8.60;89.60;;;;;;4935687;28;95330;-70
2021/12/18 01:08:34;;;;;;;23.45;5.68;;;8.70;89.80;;;;;;4936747;28;92427;-70
2021/12/18 01:11:23;;;;;;;41.25;7.30;;;8.70;89.50;;;;;;4936390;28;92918;-69
2021/12/18 01:14:13;;;;;;;26.70;5.43;;;8.70;89.20;;;;;;4935013;28;95661;-69
2021/12/18 01:17:02;;;;;;;18.25;5.65;;;8.70;89.20;;;;;;4935360;28;92857;-69
2021/12/18 01:24:58;;;;;;;18.40;5.15;;;8.70;89.20;;;;;;4936475;28;94472;-70
2021/12/18 01:27:25;;;;;;;13.63;4.57;;;8.80;89.40;;;;;;4935167;28;92647;-70
2021/12/18 01:29:52;;;;;;;7.22;3.78;;;8.80;89.30;;;;;;4935446;28;92496;-70
2021/12/18 01:32:19;;;;;;;9.93;4.22;;;8.90;89.00;;;;;;4934627;28;95553;-69
2021/12/18 01:34:46;;;;;;;7.63;4.32;;;9.00;88.40;;;;;;4934893;28;101026;-70
2021/12/18 01:37:13;;;;;;;8.23;4.30;;;9.00;88.20;;;;;;4936380;28;92435;-77
2021/12/18 01:39:40;;;;;;;7.22;3.35;;;9.10;87.90;;;;;;4934236;28;96411;-77
2021/12/18 01:52:53;;;;;;;12.77;4.50;;;8.90;87.80;;;;;;4936008;28;93097;-78
2021/12/18 01:55:25;;;;;;;13.18;4.47;;;8.90;87.90;;;;;;4935940;28;92783;-70
2021/12/18 01:57:52;;;;;;;9.52;3.97;;;8.90;88.10;;;;;;4936157;28;94962;-70
2021/12/18 02:00:23;;;;;;;12.45;3.92;;;9.00;87.50;;;;;;4938111;28;92895;-78
2021/12/18 02:02:50;;;;;;;16.63;3.55;;;9.00;87.80;;;;;;4939305;28;97393;-77
2021/12/18 02:05:17;;;;;;;14.55;3.50;;;9.00;87.80;;;;;;4939019;28;92725;-77
2021/12/18 02:07:45;;;;;;;17.77;3.13;;;9.00;87.50;;;;;;4938753;28;106002;-77
2021/12/18 02:10:32;;;;;;;8.25;3.47;;;8.90;86.90;;;;;;4939130;28;92452;-70
2021/12/18 02:21:15;;;;;;;4.07;2.45;;;8.80;86.80;;;;;;4939066;28;94173;-77
2021/12/18 02:23:43;;;;;;;5.53;2.72;;;8.80;86.90;;;;;;4937840;28;95545;-77
2021/12/18 02:26:11;;;;;;;4.35;2.50;;;8.70;87.20;;;;;;4938271;28;95227;-77
2021/12/18 02:28:42;;;;;;;5.22;2.30;;;8.60;88.00;;;;;;4938789;28;96721;-77
2021/12/18 02:31:09;;;;;;;3.58;2.35;;;8.60;87.50;;;;;;4938805;28;92427;-77
2021/12/18 02:33:36;;;;;;;5.85;2.88;;;8.60;87.60;;;;;;4938921;28;93035;-77
2021/12/18 02:36:06;;;;;;;7.38;3.00;;;8.50;87.60;;;;;;4938961;28;92861;-77
2021/12/18 02:41:34;;;;;;;5.10;2.67;;;8.50;88.00;;;;;;4939041;28;91839;-77
2021/12/18 02:44:05;;;;;;;7.53;3.60;;;8.40;88.50;;;;;;4938676;28;93063;-69
2021/12/18 02:46:32;;;;;;;8.32;3.30;;;8.40;89.20;;;;;;4938779;28;94692;-70
2021/12/18 02:49:08;;;;;;;10.95;3.58;;;8.50;88.70;;;;;;4937494;28;94801;-69
2021/12/18 02:51:35;;;;;;;6.13;2.90;;;8.50;88.60;;;;;;4937540;28;92453;-69
2021/12/18 02:54:03;;;;;;;10.15;3.05;;;8.50;88.50;;;;;;4938665;28;93069;-77
2021/12/18 02:56:30;;;;;;;6.95;3.00;;;8.50;88.40;;;;;;4938405;28;92865;-77
2021/12/18 02:59:04;;;;;;;9.18;2.92;;;8.50;88.40;;;;;;4938355;28;99877;-77
2021/12/18 03:01:33;;;;;;;11.10;3.13;;;8.40;88.80;;;;;;4938331;28;94053;-77
2021/12/18 03:04:02;;;;;;;9.65;3.75;;;8.40;88.70;;;;;;4938299;28;93175;-77
2021/12/18 03:06:40;;;;;;;7.85;3.22;;;8.40;89.10;;;;;;4937318;28;92718;-77
2021/12/18 03:25:32;;;;;;;3.92;1.55;;;8.30;87.70;;;;;;4937786;28;93087;-77
2021/12/18 03:28:00;;;;;;;4.93;1.80;;;8.30;87.50;;;;;;4937991;28;93865;-77
2021/12/18 03:30:27;;;;;;;4.70;1.75;;;8.30;87.40;;;;;;4938048;28;92449;-77
2021/12/18 03:32:54;;;;;;;4.55;1.95;;;8.30;87.50;;;;;;4937191;28;91725;-77
2021/12/18 03:35:22;;;;;;;3.55;1.80;;;8.20;87.70;;;;;;4937808;28;92776;-70
2021/12/18 03:37:49;;;;;;;5.95;2.38;;;8.30;88.10;;;;;;4938059;28;92464;-69
2021/12/18 03:40:19;;;;;;;8.20;2.40;;;8.30;87.70;;;;;;4936745;28;96478;-69
2021/12/18 03:42:46;;;;;;;5.40;2.10;;;8.40;87.70;;;;;;4938170;28;92464;-70
2021/12/18 03:45:15;;;;;;;5.05;2.00;;;8.40;87.50;;;;;;4937718;28;93095;-69
2021/12/18 03:47:43;;;;;;;4.53;1.92;;;8.40;87.20;;;;;;4937379;28;94921;-70
2021/12/18 03:50:10;;;;;;;9.23;2.33;;;8.40;87.20;;;;;;4937987;28;92354;-70
2021/12/18 03:52:37;;;;;;;5.60;2.20;;;8.40;87.40;;;;;;4936319;28;92428;-70
2021/12/18 03:55:05;;;;;;;6.60;3.08;;;8.40;87.70;;;;;;4936564;28;93085;-69
2021/12/18 03:57:32;;;;;;;7.38;2.78;;;8.40;87.70;;;;;;4937706;28;92801;-70
2021/12/18 03:59:59;;;;;;;9.75;3.20;;;8.50;88.00;;;;;;4937718;28;92339;-70
2021/12/18 04:02:26;;;;;;;9.48;3.30;;;8.50;87.80;;;;;;4932801;28;92854;-69
2021/12/18 04:04:53;;;;;;;13.65;3.20;;;8.50;87.50;;;;;;4916272;28;113797;-70
2021/12/18 04:07:21;;;;;;;11.05;2.88;;;8.50;87.70;;;;;;4916726;28;95414;-78
2021/12/18 04:09:48;;;;;;;12.65;3.40;;;8.40;87.80;;;;;;4918337;28;92452;-78
2021/12/18 04:12:16;;;;;;;9.73;3.22;;;8.40;88.20;;;;;;4916978;28;92937;-78
2021/12/18 04:14:43;;;;;;;9.07;2.58;;;8.40;88.20;;;;;;4917688;28;93067;-78
2021/12/18 04:17:11;;;;;;;9.38;2.30;;;8.40;88.30;;;;;;4916682;28;95155;-78
2021/12/18 04:19:38;;;;;;;7.18;2.75;;;8.40;88.10;;;;;;4916255;28;92394;-78
2021/12/18 04:22:05;;;;;;;11.93;2.85;;;8.40;87.90;;;;;;4918650;28;91694;-78
2021/12/18 04:24:32;;;;;;;9.13;3.33;;;8.50;87.90;;;;;;4916106;28;94282;-77
2021/12/18 04:26:59;;;;;;;15.18;3.70;;;8.50;87.70;;;;;;4916830;28;92718;-78
2021/12/18 04:29:26;;;;;;;11.27;4.40;;;8.50;87.30;;;;;;4916075;28;99214;-78
2021/12/18 04:31:53;;;;;;;8.98;4.00;;;8.50;87.30;;;;;;4916758;28;92483;-78
2021/12/18 04:34:20;;;;;;;11.80;4.50;;;8.50;87.30;;;;;;4917832;28;93071;-78
2021/12/18 04:36:47;;;;;;;10.80;3.83;;;8.50;87.50;;;;;;4917755;28;92835;-78
2021/12/18 04:39:14;;;;;;;18.00;5.40;;;8.60;87.70;;;;;;4918043;28;92561;-78
2021/12/18 04:41:47;;;;;;;17.45;5.85;;;8.60;87.30;;;;;;4917604;28;92448;-78
2021/12/18 04:44:15;;;;;;;20.48;5.20;;;8.60;87.60;;;;;;4917792;28;93046;-78
2021/12/18 04:46:42;;;;;;;11.43;4.28;;;8.60;87.50;;;;;;4917627;28;92761;-78
2021/12/18 04:49:09;;;;;;;10.30;3.95;;;8.60;87.40;;;;;;4917261;28;104290;-78
2021/12/18 04:51:36;;;;;;;10.20;3.38;;;8.60;87.40;;;;;;4917700;28;93130;-78
2021/12/18 04:54:04;;;;;;;9.60;3.00;;;8.60;87.80;;;;;;4914874;28;102936;-78
2021/12/18 04:56:31;;;;;;;11.77;3.05;;;8.60;87.50;;;;;;4917170;28;95325;-78
2021/12/18 04:58:58;;;;;;;11.20;3.20;;;8.60;87.70;;;;;;4916601;28;92819;-78
2021/12/18 05:01:26;;;;;;;11.02;3.30;;;8.60;87.60;;;;;;4917565;28;92500;-78
2021/12/18 05:03:52;;;;;;;18.13;3.03;;;8.60;87.20;;;;;;4917424;28;93629;-78
2021/12/18 05:06:20;;;;;;;9.45;3.72;;;8.60;87.40;;;;;;4917249;28;93066;-78
2021/12/18 05:08:47;;;;;;;12.73;3.53;;;8.60;87.80;;;;;;4917373;28;92492;-78
2021/12/18 05:11:14;;;;;;;14.68;3.92;;;8.60;88.00;;;;;;4900242;28;92708;-78
2021/12/18 05:13:41;;;;;;;12.65;4.65;;;8.60;87.90;;;;;;4917083;28;93120;-78
2021/12/18 05:16:08;;;;;;;18.67;5.60;;;8.70;87.90;;;;;;4917325;28;94742;-78
2021/12/18 05:18:35;;;;;;;13.85;4.93;;;8.70;87.40;;;;;;4916285;28;95253;-78
2021/12/18 05:21:02;;;;;;;18.73;4.53;;;8.70;87.70;;;;;;4915378;28;105368;-78
2021/12/18 05:23:29;;;;;;;12.40;3.95;;;8.70;87.70;;;;;;4917180;28;92983;-78
2021/12/18 05:25:56;;;;;;;12.15;4.15;;;8.60;87.40;;;;;;4915236;28;94046;-70
2021/12/18 05:28:23;;;;;;;17.17;4.95;;;8.60;87.50;;;;;;4917370;28;92682;-70
2021/12/18 05:30:50;;;;;;;18.73;4.75;;;8.60;88.00;;;;;;4917055;28;92437;-70
2021/12/18 05:33:17;;;;;;;11.88;3.30;;;8.60;88.40;;;;;;4920111;28;92990;-70
2021/12/18 05:35:44;;;;;;;10.85;3.22;;;8.60;88.10;;;;;;4920507;28;92872;-70
2021/12/18 05:38:11;;;;;;;10.98;2.97;;;8.60;87.80;;;;;;4920492;28;92794;-70
2021/12/18 05:40:38;;;;;;;8.05;2.78;;;8.60;87.70;;;;;;4918727;28;100465;-70
2021/12/18 05:43:07;;;;;;;7.47;2.65;;;8.60;87.80;;;;;;4918070;28;95507;-70
2021/12/18 05:45:36;;;;;;;8.30;2.53;;;8.70;88.20;;;;;;4919898;28;95102;-70
2021/12/18 05:48:03;;;;;;;10.13;3.53;;;8.70;88.20;;;;;;4920362;28;92365;-78
2021/12/18 05:50:31;;;;;;;11.18;4.43;;;8.70;88.00;;;;;;4919341;28;92489;-78
2021/12/18 05:53:00;;;;;;;14.88;4.78;;;8.70;88.00;;;;;;4919786;28;93079;-77
2021/12/18 05:55:29;;;;;;;16.13;4.75;;;8.80;87.90;;;;;;4920070;28;92385;-78
2021/12/18 05:57:57;;;;;;;12.95;3.65;;;8.80;87.90;;;;;;4918842;28;92881;-70
2021/12/18 06:00:24;;;;;;;13.95;3.88;;;8.80;87.60;;;;;;4920298;28;95865;-70
2021/12/18 06:02:52;;;;;;;8.48;3.03;;;8.80;87.60;;;;;;4919463;28;93748;-70
2021/12/18 06:05:19;;;;;;;10.60;2.60;;;8.90;87.10;;;;;;4918824;28;93230;-70
2021/12/18 06:10:13;;;;;;;8.40;2.80;;;9.00;87.30;;;;;;4920037;28;92501;-70
2021/12/18 06:12:39;;;;;;;7.35;2.47;;;8.90;87.20;;;;;;4918040;28;95232;-70
2021/12/18 06:15:07;;;;;;;6.75;2.30;;;9.00;86.90;;;;;;4919997;28;92815;-70
2021/12/18 06:17:33;;;;;;;11.05;2.90;;;9.00;86.90;;;;;;4918428;28;100205;-70
2021/12/18 06:20:00;;;;;;;7.95;2.75;;;9.00;86.90;;;;;;4919583;28;92525;-70
2021/12/18 06:22:27;;;;;;;7.45;2.55;;;9.00;86.70;;;;;;4919820;28;93137;-70
2021/12/18 06:24:54;;;;;;;9.23;2.55;;;9.10;86.70;;;;;;4919064;28;93891;-70
2021/12/18 06:27:21;;;;;;;8.75;2.40;;;9.10;86.50;;;;;;4920004;28;92821;-78
2021/12/18 06:29:49;;;;;;;7.55;2.65;;;9.10;86.60;;;;;;4919559;28;92451;-78
2021/12/18 06:32:16;;;;;;;11.93;3.00;;;9.10;86.30;;;;;;4918234;28;95391;-78
2021/12/18 06:34:43;;;;;;;8.32;2.90;;;9.10;86.20;;;;;;4918969;28;95227;-78
2021/12/18 06:37:10;;;;;;;9.73;2.47;;;9.10;86.20;;;;;;4918283;28;92347;-78
2021/12/18 06:39:36;;;;;;;8.93;2.63;;;9.10;86.10;;;;;;4919358;28;97836;-78
2021/12/18 06:42:04;;;;;;;7.20;2.50;;;9.10;86.20;;;;;;4918591;28;93013;-78
2021/12/18 06:44:31;;;;;;;8.77;2.67;;;9.10;86.10;;;;;;4918175;28;98877;-78
2021/12/18 06:46:58;;;;;;;13.27;2.88;;;9.20;86.40;;;;;;4919376;28;92488;-78
2021/12/18 06:49:25;;;;;;;7.70;2.50;;;9.20;86.00;;;;;;4918353;28;95742;-78
2021/12/18 06:51:52;;;;;;;8.10;2.85;;;9.20;86.20;;;;;;4917611;28;94133;-78
2021/12/18 06:54:18;;;;;;;7.93;2.95;;;9.20;86.30;;;;;;4919203;28;94813;-78
2021/12/18 06:56:45;;;;;;;6.47;2.60;;;9.20;86.90;;;;;;4918401;28;94860;-78
2021/12/18 06:59:12;;;;;;;7.38;2.80;;;9.20;86.10;;;;;;4901699;28;104848;-78
2021/12/18 07:01:39;;;;;;;7.35;2.88;;;9.20;86.30;;;;;;4918979;28;94858;-78
2021/12/18 07:04:06;;;;;;;9.05;3.05;;;9.30;86.20;;;;;;4918718;28;93463;-78
2021/12/18 07:06:33;;;;;;;12.05;3.05;;;9.30;86.30;;;;;;4919813;28;92689;-78
2021/12/18 07:09:00;;;;;;;11.15;3.35;;;9.30;86.30;;;;;;4917574;28;92458;-70
2021/12/18 07:11:27;;;;;;;9.48;3.20;;;9.30;86.10;;;;;;4901719;28;94110;-70
2021/12/18 07:13:55;;;;;;;10.32;3.42;;;9.30;86.10;;;;;;4919150;28;92801;-70
2021/12/18 07:16:22;;;;;;;12.43;4.00;;;9.30;86.00;;;;;;4918625;28;102209;-70
2021/12/18 07:18:51;;;;;;;11.02;3.50;;;9.30;86.10;;;;;;4918820;28;92534;-70
2021/12/18 07:21:21;;;;;;;7.95;3.15;;;9.40;86.10;;;;;;4917832;28;95389;-70
2021/12/18 07:23:48;;;;;;;9.40;3.40;;;9.40;86.00;;;;;;4918723;28;95166;-70
2021/12/18 07:26:16;;;;;;;12.00;3.72;;;9.30;86.10;;;;;;4917294;28;92470;-70
2021/12/18 07:28:43;;;;;;;9.20;3.58;;;9.40;86.10;;;;;;4918946;28;92437;-70
2021/12/18 07:31:10;;;;;;;13.02;3.92;;;9.40;86.20;;;;;;4918512;28;92978;-70
2021/12/18 07:33:41;;;;;;;12.30;3.85;;;9.40;86.10;;;;;;4918772;28;92769;-70
2021/12/18 07:36:08;;;;;;;11.25;3.55;;;9.50;86.10;;;;;;4933678;28;92497;-70
2021/12/18 07:38:35;;;;;;;10.00;3.88;;;9.50;86.00;;;;;;4933674;28;98439;-70
2021/12/18 07:41:02;;;;;;;14.02;4.38;;;9.50;85.80;;;;;;4918257;28;93083;-70
2021/12/18 07:43:31;;;;;;;11.38;4.22;;;9.50;85.90;;;;;;4918188;28;93223;-70
2021/12/18 07:45:58;;;;;;;7.38;3.72;;;9.50;85.80;;;;;;4917369;28;94819;-70
2021/12/18 07:48:25;;;;;;;10.25;4.40;;;9.50;85.80;;;;;;4917187;28;92502;-71
2021/12/18 07:50:52;;;;;;;12.95;4.80;;;9.50;85.70;;;;;;4916810;28;94081;-70
2021/12/18 07:53:21;;;;;;;11.55;4.10;;;9.50;85.90;;;;;;4917173;28;92741;-70
2021/12/18 07:55:48;;;;;;;15.50;4.65;;;9.60;86.20;;;;;;4916811;28;107850;-70
2021/12/18 07:58:15;;;;;;;8.45;4.03;;;9.60;86.20;;;;;;4916997;28;92463;-70
2021/12/18 08:00:42;;;;;;;10.25;4.65;;;9.60;86.10;;;;;;4918385;28;93305;-70
2021/12/18 08:03:09;;;;;;;12.30;4.88;;;9.60;85.90;;;;;;4918350;28;96150;-70
2021/12/18 08:05:36;;;;;;;13.63;4.95;;;9.70;86.00;;;;;;4917082;28;93132;-70
2021/12/18 08:08:03;;;;;;;15.63;5.32;;;9.70;86.00;;;;;;4916888;28;92506;-70
2021/12/18 08:10:30;;;;;;;12.57;4.63;;;9.70;86.00;;;;;;4915031;28;98310;-70
2021/12/18 08:12:57;;;;;;;15.20;5.45;;;9.80;85.90;;;;;;4916236;28;96439;-70
2021/12/18 08:15:24;;;;;;;11.75;5.25;;;9.80;85.60;;;;;;4916785;28;92456;-77
2021/12/18 08:17:52;;;;;;;15.15;5.93;;;9.80;85.80;;;;;;4918165;28;92497;-78
2021/12/18 08:20:19;;;;;;;16.08;5.80;;;9.80;85.70;;;;;;4917878;28;93062;-78
2021/12/18 08:22:46;;;;;;;14.50;6.15;;;9.80;85.80;;;;;;4917784;28;92838;-77
2021/12/18 08:25:13;;;;;;;12.38;5.70;;;9.80;85.70;;;;;;4917117;28;92474;-77
2021/12/18 08:27:40;;;;;;;15.23;6.03;;;9.80;85.90;;;;;;4917473;28;91781;-77
2021/12/18 08:30:08;;;;;;;12.55;4.80;;;9.80;85.80;;;;;;4917546;28;94319;-77
2021/12/18 08:32:35;;;;;;;18.10;5.80;;;9.80;85.80;;;;;;4917756;28;92991;-77
2021/12/18 08:35:02;;;;;;;9.38;5.30;;;9.70;86.20;;;;;;4914870;28;100474;-77
2021/12/18 08:37:29;;;;;;;12.85;6.00;;;9.70;86.50;;;;;;4917854;28;92450;-70
2021/12/18 08:39:56;;;;;;;12.10;6.40;;;9.60;86.50;;;;;;4915559;28;93055;-70
2021/12/18 08:42:24;;;;;;;13.50;7.32;;;9.70;86.80;;;;;;4917350;28;92982;-70
2021/12/18 08:44:51;;;;;;;14.18;7.97;;;9.60;86.80;;;;;;4917510;28;92465;-70
2021/12/18 08:47:19;;;;;;;16.52;9.57;;;9.60;86.80;;;;;;4917501;28;92481;-70
2021/12/18 08:49:46;;;;;;;20.20;11.50;;;9.60;86.80;;;;;;4917429;28;93130;-70
2021/12/18 08:52:13;;;;;;;17.30;11.60;;;9.70;86.90;;;;;;4917200;28;92877;-70
2021/12/18 08:54:40;;;;;;;26.20;13.25;;;9.70;86.80;;;;;;4916597;28;98892;-70
2021/12/18 08:57:08;;;;;;;26.77;17.05;;;9.80;86.70;;;;;;4915879;28;92832;-70
2021/12/18 08:59:37;;;;;;;30.05;19.52;;;9.80;86.60;;;;;;4914197;28;96514;-70
2021/12/18 09:02:05;;;;;;;31.70;20.63;;;9.80;86.60;;;;;;4899082;28;96473;-70
2021/12/18 09:04:33;;;;;;;33.58;21.75;;;9.80;86.60;;;;;;4915691;28;92521;-70
2021/12/18 09:07:00;;;;;;;46.38;27.73;;;9.90;86.60;;;;;;4916349;28;92898;-70
2021/12/18 09:09:27;;;;;;;47.22;30.83;;;9.90;86.30;;;;;;4916540;28;93079;-70
2021/12/18 09:11:54;;;;;;;62.00;35.05;;;10.00;86.20;;;;;;4914931;28;94005;-70
2021/12/18 09:14:21;;;;;;;53.05;32.40;;;10.00;86.20;;;;;;4916595;28;92456;-70
2021/12/18 09:16:49;;;;;;;51.63;30.52;;;10.10;85.90;;;;;;4916912;28;91724;-70
2021/12/18 09:19:16;;;;;;;36.17;20.85;;;10.10;86.00;;;;;;4916093;28;93123;-70
2021/12/18 09:21:43;;;;;;;22.30;13.65;;;10.10;85.90;;;;;;4916288;28;92884;-70
2021/12/18 09:24:10;;;;;;;10.77;5.53;;;10.10;86.00;;;;;;4915155;28;94872;-70
2021/12/18 09:26:37;;;;;;;11.75;5.95;;;10.10;86.00;;;;;;4916690;28;92437;-70
2021/12/18 09:29:04;;;;;;;8.13;4.25;;;10.10;86.00;;;;;;4915366;28;94350;-77
2021/12/18 09:31:34;;;;;;;9.80;4.13;;;10.10;86.00;;;;;;4915697;28;94591;-77
2021/12/18 09:34:01;;;;;;;11.75;4.45;;;10.10;86.30;;;;;;4915850;28;92452;-77
2021/12/18 09:36:28;;;;;;;10.80;4.30;;;10.10;86.10;;;;;;4916925;28;92445;-77
2021/12/18 09:38:56;;;;;;;14.02;4.38;;;10.10;86.30;;;;;;4915435;28;96747;-77
2021/12/18 09:41:24;;;;;;;12.73;3.83;;;10.10;86.30;;;;;;4915343;28;95652;-77
2021/12/18 09:43:51;;;;;;;6.82;2.88;;;10.10;86.40;;;;;;4931727;28;92402;-77
2021/12/18 09:46:18;;;;;;;4.90;2.50;;;10.00;86.00;;;;;;4916704;28;93333;-77
2021/12/18 09:48:45;;;;;;;8.25;2.83;;;10.10;86.20;;;;;;4914231;28;95492;-77
2021/12/18 09:51:23;;;;;;;8.13;2.53;;;10.00;85.80;;;;;;4916201;28;95222;-78
2021/12/18 09:53:52;;;;;;;6.18;2.65;;;10.10;85.80;;;;;;4916946;28;92431;-77
2021/12/18 09:56:21;;;;;;;6.28;2.65;;;10.10;86.10;;;;;;4915403;28;92430;-77
2021/12/18 09:58:48;;;;;;;3.35;2.40;;;10.10;85.90;;;;;;4899642;28;93473;-77
2021/12/18 10:01:16;;;;;;;4.68;2.13;;;10.10;85.90;;;;;;4930893;28;94134;-77
2021/12/18 10:03:44;;;;;;;7.22;2.72;;;10.00;86.20;;;;;;4916926;28;92784;-77
2021/12/18 10:06:44;;;;;;;3.90;2.17;;;10.10;86.60;;;;;;4915985;28;110713;-77
2021/12/18 10:09:18;;;;;;;5.20;2.00;;;10.10;86.00;;;;;;4916404;28;96212;-77
2021/12/18 10:11:58;;;;;;;5.43;2.40;;;10.10;86.10;;;;;;4931460;28;94075;-70
2021/12/18 10:14:35;;;;;;;7.32;2.63;;;10.20;86.00;;;;;;4915479;28;95213;-70
2021/12/18 10:17:04;;;;;;;6.25;2.60;;;10.30;85.70;;;;;;4931812;28;92559;-77
2021/12/18 10:19:33;;;;;;;11.10;5.28;;;10.30;85.20;;;;;;4919413;28;93064;-77
2021/12/18 10:22:07;;;;;;;5.20;3.67;;;10.30;85.10;;;;;;4885851;28;110651;-77
2021/12/18 10:24:37;;;;;;;7.80;3.63;;;10.30;85.20;;;;;;4919994;28;92473;-77
2021/12/18 10:27:26;;;;;;;9.32;4.03;;;10.30;85.10;;;;;;4919652;28;92470;-77
2021/12/18 10:30:06;;;;;;;5.15;3.05;;;10.40;85.20;;;;;;4918526;28;93126;-77
2021/12/18 10:32:33;;;;;;;9.93;3.22;;;10.40;85.00;;;;;;4919542;28;95812;-77
2021/12/18 10:35:00;;;;;;;4.82;2.35;;;10.50;85.00;;;;;;4919680;28;92462;-77
2021/12/18 10:37:29;;;;;;;8.88;2.88;;;10.50;84.50;;;;;;4918186;28;92575;-77
2021/12/18 10:39:59;;;;;;;9.15;2.88;;;10.50;83.80;;;;;;4918128;28;95541;-77
2021/12/18 10:42:42;;;;;;;7.68;3.33;;;10.50;83.80;;;;;;4919180;28;93938;-77
2021/12/18 10:45:20;;;;;;;7.40;3.40;;;10.60;82.80;;;;;;4919561;28;92472;-77
2021/12/18 10:48:06;;;;;;;9.85;4.05;;;10.60;82.80;;;;;;4919416;28;92394;-77
2021/12/18 10:50:38;;;;;;;9.45;4.82;;;10.60;82.50;;;;;;4919200;28;93274;-77
2021/12/18 10:53:17;;;;;;;10.90;5.05;;;10.60;82.70;;;;;;4919397;28;95605;-70
2021/12/18 10:55:56;;;;;;;9.43;4.70;;;10.60;82.70;;;;;;4934456;28;92896;-70
2021/12/18 10:58:32;;;;;;;8.57;3.65;;;10.70;82.90;;;;;;4918218;28;91813;-70
2021/12/18 11:01:03;;;;;;;9.23;3.50;;;10.70;82.90;;;;;;4918991;28;94228;-70
2021/12/18 11:03:44;;;;;;;7.82;2.78;;;10.70;83.30;;;;;;4918967;28;92841;-70
2021/12/18 11:06:25;;;;;;;6.97;3.00;;;10.70;83.20;;;;;;4918302;28;94727;-70
2021/12/18 11:09:04;;;;;;;12.32;2.42;;;10.80;83.10;;;;;;4919230;28;92453;-70
2021/12/18 11:14:17;;;;;;;8.55;2.75;;;10.80;82.50;;;;;;4918821;28;92395;-70
2021/12/18 11:16:48;;;;;;;8.55;2.50;;;10.80;82.10;;;;;;4919266;28;92355;-70
2021/12/18 11:19:17;;;;;;;7.78;3.00;;;10.80;82.50;;;;;;4917695;28;92472;-70
2021/12/18 11:21:46;;;;;;;6.10;3.00;;;10.80;83.20;;;;;;4917869;28;116709;-70
2021/12/18 11:24:14;;;;;;;10.48;3.50;;;10.70;83.60;;;;;;4918971;28;92697;-70
2021/12/18 11:27:00;;;;;;;11.38;3.47;;;10.70;84.20;;;;;;4918123;28;92514;-70
2021/12/18 11:29:46;;;;;;;9.82;3.22;;;10.70;84.20;;;;;;4918952;28;92363;-70
2021/12/18 11:32:23;;;;;;;8.68;3.45;;;10.70;84.30;;;;;;4916333;28;95369;-70
2021/12/18 11:34:54;;;;;;;11.68;2.95;;;10.70;84.30;;;;;;4918647;28;96903;-70
2021/12/18 11:37:24;;;;;;;9.30;2.85;;;10.70;84.00;;;;;;4918768;28;92353;-70
2021/12/18 11:39:57;;;;;;;6.20;3.10;;;10.70;84.00;;;;;;4918619;28;92499;-70
2021/12/18 11:42:29;;;;;;;9.02;3.55;;;10.70;84.20;;;;;;4918591;28;93094;-77
2021/12/18 11:44:58;;;;;;;8.63;3.28;;;10.60;84.20;;;;;;4918370;28;92702;-77
2021/12/18 11:47:26;;;;;;;7.50;3.28;;;10.60;84.40;;;;;;4916524;28;94219;-77
2021/12/18 11:50:19;;;;;;;7.78;3.47;;;10.60;84.60;;;;;;4917539;28;91806;-77
2021/12/18 11:52:54;;;;;;;4.82;3.33;;;10.70;84.30;;;;;;4918657;28;92990;-77
2021/12/18 11:55:22;;;;;;;7.93;3.30;;;10.70;84.20;;;;;;4918052;28;92718;-77
2021/12/18 11:57:57;;;;;;;10.25;3.28;;;10.70;83.70;;;;;;4916720;28;100649;-77
2021/12/18 12:00:36;;;;;;;9.18;4.43;;;10.80;83.50;;;;;;4918527;28;92436;-77
2021/12/18 12:03:06;;;;;;;5.50;3.17;;;10.80;83.30;;;;;;4918203;28;92802;-77
2021/12/18 12:05:39;;;;;;;9.23;3.03;;;10.70;83.40;;;;;;4918034;28;92864;-77
2021/12/18 12:08:30;;;;;;;10.00;3.65;;;10.80;83.50;;;;;;4918835;28;92718;-77
2021/12/18 12:11:15;;;;;;;7.13;2.72;;;10.80;83.40;;;;;;4917356;28;92539;-77
2021/12/18 12:14:16;;;;;;;8.10;3.17;;;10.80;83.10;;;;;;4917696;28;99305;-77
2021/12/18 12:16:45;;;;;;;7.65;2.80;;;10.80;82.80;;;;;;4918301;28;92716;-77
2021/12/18 12:19:26;;;;;;;8.88;3.05;;;10.70;83.10;;;;;;4917617;28;92368;-77
2021/12/18 12:21:56;;;;;;;11.32;3.60;;;10.80;83.20;;;;;;4918298;28;92439;-70
2021/12/18 12:24:25;;;;;;;8.43;2.58;;;10.80;83.30;;;;;;4916350;28;95524;-77
2021/12/18 12:26:54;;;;;;;5.82;2.83;;;10.80;83.00;;;;;;4917466;28;95227;-77
2021/12/18 12:29:22;;;;;;;6.60;2.58;;;10.80;83.10;;;;;;4900677;28;92596;-70
2021/12/18 12:32:02;;;;;;;4.60;2.10;;;10.80;81.80;;;;;;4916549;28;92624;-70
2021/12/18 12:34:34;;;;;;;7.05;2.78;;;10.80;81.40;;;;;;4916313;28;94463;-77
2021/12/18 12:37:23;;;;;;;6.72;2.33;;;10.80;81.30;;;;;;4916722;28;92979;-77
2021/12/18 12:39:57;;;;;;;7.07;2.20;;;10.80;80.60;;;;;;4917471;28;92424;-77
2021/12/18 12:42:24;;;;;;;7.20;2.40;;;10.80;80.90;;;;;;4918177;28;91790;-77
2021/12/18 12:45:00;;;;;;;3.95;2.22;;;10.80;80.50;;;;;;4917404;28;93120;-77
2021/12/18 12:47:30;;;;;;;7.75;2.40;;;10.80;81.00;;;;;;4917737;28;92762;-77
2021/12/18 12:50:00;;;;;;;7.85;2.80;;;10.90;81.00;;;;;;4899493;28;94916;-77
2021/12/18 12:52:28;;;;;;;7.43;2.92;;;10.90;81.20;;;;;;4917625;28;92349;-70
2021/12/18 12:55:02;;;;;;;6.80;3.10;;;11.00;81.00;;;;;;4916870;28;110509;-70
2021/12/18 12:57:30;;;;;;;7.40;2.80;;;11.00;81.20;;;;;;4917624;28;92880;-70
2021/12/18 13:00:05;;;;;;;9.35;3.38;;;11.00;80.90;;;;;;4917706;28;92493;-70
2021/12/18 13:02:35;;;;;;;9.45;2.95;;;11.10;80.70;;;;;;4917188;28;92559;-70
2021/12/18 13:05:08;;;;;;;7.50;2.63;;;11.10;80.80;;;;;;4915873;28;96880;-70
2021/12/18 13:07:44;;;;;;;8.02;2.67;;;11.10;80.30;;;;;;4917973;28;92110;-70
2021/12/18 13:10:11;;;;;;;8.52;2.58;;;11.10;80.50;;;;;;4917698;28;92828;-70
2021/12/18 13:13:05;;;;;;;9.50;2.78;;;11.10;80.50;;;;;;4916657;28;106443;-70
2021/12/18 13:15:57;;;;;;;10.00;3.15;;;11.20;80.40;;;;;;4914716;28;96600;-70
2021/12/18 13:18:32;;;;;;;15.52;6.82;;;11.10;81.00;;;;;;4917255;28;96975;-70
2021/12/18 13:21:03;;;;;;;7.72;2.92;;;11.10;80.30;;;;;;4917559;28;92526;-70
2021/12/18 13:24:07;;;;;;;11.73;4.88;;;11.10;80.20;;;;;;4916047;28;92843;-70
2021/12/18 13:26:39;;;;;;;11.60;4.88;;;11.10;80.20;;;;;;4894392;28;94567;-70
2021/12/18 13:29:15;;;;;;;10.52;3.75;;;11.00;80.20;;;;;;4925749;28;92867;-70
2021/12/18 13:31:52;;;;;;;15.25;7.25;;;11.00;80.50;;;;;;4917133;28;92794;-70
2021/12/18 13:34:29;;;;;;;8.80;3.22;;;11.00;80.70;;;;;;4917745;28;91737;-77
2021/12/18 13:37:07;;;;;;;7.07;3.72;;;11.00;80.40;;;;;;4916967;28;93108;-77
2021/12/18 13:39:40;;;;;;;12.13;3.40;;;11.00;80.30;;;;;;4916852;28;92678;-77
2021/12/18 13:42:11;;;;;;;11.05;3.53;;;11.00;80.20;;;;;;4914399;28;94941;-77
2021/12/18 13:44:38;;;;;;;8.25;3.28;;;11.00;80.30;;;;;;4916638;28;92587;-77
2021/12/18 13:47:13;;;;;;;6.95;4.25;;;11.00;80.60;;;;;;4916875;28;93067;-77
2021/12/18 13:49:40;;;;;;;6.20;4.07;;;11.00;80.70;;;;;;4916470;28;92850;-77
2021/12/18 13:52:07;;;;;;;12.70;7.55;;;10.90;80.20;;;;;;4916653;28;100820;-77